sensor_id;sensor_type;location;lat;lon;timestamp;pressure;altitude;pressure_sealevel;temperature;humidity
78717;BME280;68045;50.042;14.432;2023-02-28T00:02:17;99410.81;;;-0.18;63.76
78717;BME280;68045;50.042;14.432;2023-02-28T00:06:18;99406.44;;;-0.27;63.84
78717;BME280;68045;50.042;14.432;2023-02-28T00:10:30;99407.38;;;-0.28;64.15
78717;BME280;68045;50.042;14.432;2023-02-28T00:14:32;99398.75;;;-0.29;64.77
78717;BME280;68045;50.042;14.432;2023-02-28T00:18:33;99399.03;;;-0.22;64.35
78717;BME280;68045;50.042;14.432;2023-02-28T00:22:34;99393.47;;;-0.17;63.95
78717;BME280;68045;50.042;14.432;2023-02-28T00:26:35;99397.03;;;-0.18;64.16
78717;BME280;68045;50.042;14.432;2023-02-28T00:30:37;99396.34;;;-0.11;63.85
78717;BME280;68045;50.042;14.432;2023-02-28T00:34:39;99397.44;;;-0.13;64.23
78717;BME280;68045;50.042;14.432;2023-02-28T00:38:40;99398.13;;;-0.11;64.08
78717;BME280;68045;50.042;14.432;2023-02-28T00:42:41;99401.69;;;-0.12;65.23
78717;BME280;68045;50.042;14.432;2023-02-28T00:46:43;99395.16;;;-0.07;64.44
78717;BME280;68045;50.042;14.432;2023-02-28T00:50:44;99395.25;;;-0.18;64.72
78717;BME280;68045;50.042;14.432;2023-02-28T00:54:46;99398.94;;;-0.11;64.20
78717;BME280;68045;50.042;14.432;2023-02-28T00:58:49;99395.66;;;-0.13;64.87
78717;BME280;68045;50.042;14.432;2023-02-28T01:02:50;99396.75;;;-0.15;64.73
78717;BME280;68045;50.042;14.432;2023-02-28T01:06:51;99397.03;;;-0.18;64.77
78717;BME280;68045;50.042;14.432;2023-02-28T01:10:52;99385.25;;;-0.22;65.14
78717;BME280;68045;50.042;14.432;2023-02-28T01:14:53;99389.09;;;-0.26;65.15
78717;BME280;68045;50.042;14.432;2023-02-28T01:18:56;99387.03;;;-0.23;65.34
78717;BME280;68045;50.042;14.432;2023-02-28T01:22:57;99384.03;;;-0.28;64.89
78717;BME280;68045;50.042;14.432;2023-02-28T01:26:58;99388.78;;;-0.33;65.46
78717;BME280;68045;50.042;14.432;2023-02-28T01:30:59;99391.63;;;-0.36;65.55
78717;BME280;68045;50.042;14.432;2023-02-28T01:35:01;99395.31;;;-0.39;66.04
78717;BME280;68045;50.042;14.432;2023-02-28T01:39:02;99385.78;;;-0.38;66.04
78717;BME280;68045;50.042;14.432;2023-02-28T01:43:09;99391.25;;;-0.41;66.19
78717;BME280;68045;50.042;14.432;2023-02-28T01:47:20;99388.88;;;-0.44;66.02
78717;BME280;68045;50.042;14.432;2023-02-28T01:51:27;99380.28;;;-0.45;66.29
78717;BME280;68045;50.042;14.432;2023-02-28T01:55:31;99369.91;;;-0.54;66.35
78717;BME280;68045;50.042;14.432;2023-02-28T01:59:37;99371.25;;;-0.50;66.31
78717;BME280;68045;50.042;14.432;2023-02-28T02:03:41;99374.03;;;-0.42;66.16
78717;BME280;68045;50.042;14.432;2023-02-28T02:07:44;99368.94;;;-0.53;66.74
78717;BME280;68045;50.042;14.432;2023-02-28T02:11:47;99370.97;;;-0.57;66.32
78717;BME280;68045;50.042;14.432;2023-02-28T02:20:58;99356.81;;;-0.53;66.43
78717;BME280;68045;50.042;14.432;2023-02-28T02:43:01;99371.97;;;-0.48;65.11
78717;BME280;68045;50.042;14.432;2023-02-28T02:47:08;99360.31;;;-0.64;64.80
78717;BME280;68045;50.042;14.432;2023-02-28T02:51:14;99366.56;;;-0.66;65.54
78717;BME280;68045;50.042;14.432;2023-02-28T02:55:17;99368.72;;;-0.71;64.47
78717;BME280;68045;50.042;14.432;2023-02-28T02:59:21;99371.97;;;-0.79;64.29
78717;BME280;68045;50.042;14.432;2023-02-28T03:03:25;99379.06;;;-0.81;64.39
78717;BME280;68045;50.042;14.432;2023-02-28T03:07:30;99375.09;;;-0.85;64.33
78717;BME280;68045;50.042;14.432;2023-02-28T03:11:32;99383.94;;;-0.88;64.47
78717;BME280;68045;50.042;14.432;2023-02-28T03:16:27;99374.38;;;-0.97;64.44
78717;BME280;68045;50.042;14.432;2023-02-28T03:24:19;99382.72;;;-1.14;64.85
78717;BME280;68045;50.042;14.432;2023-02-28T03:28:32;99373.31;;;-1.15;65.16
78717;BME280;68045;50.042;14.432;2023-02-28T03:33:06;99379.56;;;-1.18;65.43
78717;BME280;68045;50.042;14.432;2023-02-28T03:37:16;99374.72;;;-1.32;65.87
78717;BME280;68045;50.042;14.432;2023-02-28T03:41:32;99374.41;;;-1.39;66.32
78717;BME280;68045;50.042;14.432;2023-02-28T03:45:37;99372.81;;;-1.51;65.88
78717;BME280;68045;50.042;14.432;2023-02-28T03:49:46;99360.63;;;-1.60;66.73
78717;BME280;68045;50.042;14.432;2023-02-28T03:54:04;99365.63;;;-1.68;66.84
78717;BME280;68045;50.042;14.432;2023-02-28T04:02:30;99371.81;;;-1.91;67.48
78717;BME280;68045;50.042;14.432;2023-02-28T04:06:33;99372.81;;;-2.04;68.21
78717;BME280;68045;50.042;14.432;2023-02-28T04:10:35;99375.00;;;-1.99;68.00
78717;BME280;68045;50.042;14.432;2023-02-28T04:14:36;99374.81;;;-2.07;68.11
78717;BME280;68045;50.042;14.432;2023-02-28T04:18:40;99379.50;;;-2.12;68.99
78717;BME280;68045;50.042;14.432;2023-02-28T04:22:41;99383.50;;;-2.08;68.52
78717;BME280;68045;50.042;14.432;2023-02-28T04:26:45;99383.75;;;-2.11;68.63
78717;BME280;68045;50.042;14.432;2023-02-28T04:30:47;99378.34;;;-2.19;68.39
78717;BME280;68045;50.042;14.432;2023-02-28T04:34:48;99378.84;;;-2.26;68.56
78717;BME280;68045;50.042;14.432;2023-02-28T04:38:49;99384.13;;;-2.27;68.64
78717;BME280;68045;50.042;14.432;2023-02-28T04:42:50;99393.09;;;-2.31;69.30
78717;BME280;68045;50.042;14.432;2023-02-28T04:46:51;99388.88;;;-2.32;69.06
78717;BME280;68045;50.042;14.432;2023-02-28T04:50:53;99390.03;;;-2.36;68.96
78717;BME280;68045;50.042;14.432;2023-02-28T04:54:54;99392.88;;;-2.39;69.44
78717;BME280;68045;50.042;14.432;2023-02-28T04:58:55;99398.84;;;-2.39;68.89
78717;BME280;68045;50.042;14.432;2023-02-28T05:02:56;99400.97;;;-2.44;69.00
78717;BME280;68045;50.042;14.432;2023-02-28T05:06:58;99401.69;;;-2.53;69.42
78717;BME280;68045;50.042;14.432;2023-02-28T05:10:59;99404.84;;;-2.50;69.93
78717;BME280;68045;50.042;14.432;2023-02-28T05:15:01;99398.38;;;-2.55;69.67
78717;BME280;68045;50.042;14.432;2023-02-28T05:19:02;99404.28;;;-2.53;69.68
78717;BME280;68045;50.042;14.432;2023-02-28T05:23:04;99405.56;;;-2.59;70.01
78717;BME280;68045;50.042;14.432;2023-02-28T05:27:05;99413.44;;;-2.60;70.29
78717;BME280;68045;50.042;14.432;2023-02-28T05:31:06;99412.13;;;-2.66;69.71
78717;BME280;68045;50.042;14.432;2023-02-28T05:35:07;99412.97;;;-2.65;70.06
78717;BME280;68045;50.042;14.432;2023-02-28T05:39:08;99424.25;;;-2.66;70.04
78717;BME280;68045;50.042;14.432;2023-02-28T05:43:13;99422.59;;;-2.67;70.50
78717;BME280;68045;50.042;14.432;2023-02-28T05:47:14;99415.66;;;-2.67;69.58
78717;BME280;68045;50.042;14.432;2023-02-28T05:51:17;99432.09;;;-2.68;69.71
78717;BME280;68045;50.042;14.432;2023-02-28T05:55:18;99425.03;;;-2.77;69.65
78717;BME280;68045;50.042;14.432;2023-02-28T05:59:19;99433.16;;;-2.70;70.05
78717;BME280;68045;50.042;14.432;2023-02-28T06:03:20;99434.91;;;-2.71;70.60
78717;BME280;68045;50.042;14.432;2023-02-28T06:07:21;99437.97;;;-2.66;69.80
78717;BME280;68045;50.042;14.432;2023-02-28T06:11:23;99439.63;;;-2.65;69.52
78717;BME280;68045;50.042;14.432;2023-02-28T06:15:28;99443.63;;;-2.61;69.68
78717;BME280;68045;50.042;14.432;2023-02-28T06:19:29;99453.03;;;-2.60;68.87
78717;BME280;68045;50.042;14.432;2023-02-28T06:23:31;99456.06;;;-2.43;69.04
78717;BME280;68045;50.042;14.432;2023-02-28T06:27:33;99462.66;;;-2.39;68.42
78717;BME280;68045;50.042;14.432;2023-02-28T06:31:34;99466.50;;;-2.23;68.55
78717;BME280;68045;50.042;14.432;2023-02-28T06:35:35;99474.03;;;-2.08;67.03
78717;BME280;68045;50.042;14.432;2023-02-28T06:39:37;99474.94;;;-1.98;66.94
78717;BME280;68045;50.042;14.432;2023-02-28T06:43:40;99481.41;;;-1.92;66.54
78717;BME280;68045;50.042;14.432;2023-02-28T06:47:42;99483.25;;;-1.83;66.69
78717;BME280;68045;50.042;14.432;2023-02-28T06:51:44;99481.34;;;-1.70;65.61
78717;BME280;68045;50.042;14.432;2023-02-28T06:55:46;99490.72;;;-1.58;64.96
78717;BME280;68045;50.042;14.432;2023-02-28T06:59:48;99496.31;;;-1.42;64.62
78717;BME280;68045;50.042;14.432;2023-02-28T07:03:49;99498.25;;;-1.23;64.28
78717;BME280;68045;50.042;14.432;2023-02-28T07:07:52;99492.78;;;-1.08;63.08
78717;BME280;68045;50.042;14.432;2023-02-28T07:11:53;99492.00;;;-0.99;62.43
78717;BME280;68045;50.042;14.432;2023-02-28T07:16:06;99492.81;;;-0.78;61.75
78717;BME280;68045;50.042;14.432;2023-02-28T07:20:10;99494.09;;;-0.72;61.39
78717;BME280;68045;50.042;14.432;2023-02-28T07:24:11;99498.13;;;-0.59;60.83
78717;BME280;68045;50.042;14.432;2023-02-28T07:28:13;99502.75;;;-0.41;59.78
78717;BME280;68045;50.042;14.432;2023-02-28T07:32:14;99505.97;;;-0.18;59.05
78717;BME280;68045;50.042;14.432;2023-02-28T07:36:16;99509.03;;;-0.04;59.09
78717;BME280;68045;50.042;14.432;2023-02-28T07:40:19;99507.34;;;0.26;57.69
78717;BME280;68045;50.042;14.432;2023-02-28T07:44:20;99511.63;;;0.56;56.91
78717;BME280;68045;50.042;14.432;2023-02-28T07:48:21;99514.66;;;0.80;55.09
78717;BME280;68045;50.042;14.432;2023-02-28T07:52:23;99522.31;;;0.82;54.46
78717;BME280;68045;50.042;14.432;2023-02-28T07:56:24;99515.59;;;1.28;53.66
78717;BME280;68045;50.042;14.432;2023-02-28T08:00:25;99520.34;;;1.42;52.26
78717;BME280;68045;50.042;14.432;2023-02-28T08:04:26;99522.31;;;1.68;51.65
78717;BME280;68045;50.042;14.432;2023-02-28T08:08:28;99518.97;;;1.85;50.22
78717;BME280;68045;50.042;14.432;2023-02-28T08:12:32;99508.19;;;2.07;48.79
78717;BME280;68045;50.042;14.432;2023-02-28T08:16:34;99520.56;;;2.86;48.85
78717;BME280;68045;50.042;14.432;2023-02-28T08:20:35;99521.16;;;3.60;45.76
78717;BME280;68045;50.042;14.432;2023-02-28T08:24:36;99521.41;;;4.91;42.96
78717;BME280;68045;50.042;14.432;2023-02-28T08:28:37;99519.34;;;5.91;39.38
78717;BME280;68045;50.042;14.432;2023-02-28T08:32:39;99525.22;;;7.32;37.35
78717;BME280;68045;50.042;14.432;2023-02-28T08:36:41;99514.09;;;9.06;32.96
78717;BME280;68045;50.042;14.432;2023-02-28T08:40:43;99511.59;;;9.75;30.26
78717;BME280;68045;50.042;14.432;2023-02-28T08:44:44;99522.59;;;10.75;28.20
78717;BME280;68045;50.042;14.432;2023-02-28T08:48:45;99510.22;;;11.81;27.04
78717;BME280;68045;50.042;14.432;2023-02-28T08:52:47;99514.06;;;13.13;24.51
78717;BME280;68045;50.042;14.432;2023-02-28T08:56:48;99509.69;;;13.93;23.69
78717;BME280;68045;50.042;14.432;2023-02-28T09:00:50;99516.31;;;14.39;21.95
78717;BME280;68045;50.042;14.432;2023-02-28T09:04:51;99513.66;;;14.21;22.37
78717;BME280;68045;50.042;14.432;2023-02-28T09:08:52;99511.66;;;14.35;21.53
78717;BME280;68045;50.042;14.432;2023-02-28T09:12:55;99516.50;;;14.74;21.50
78717;BME280;68045;50.042;14.432;2023-02-28T09:16:58;99522.78;;;16.04;20.69
78717;BME280;68045;50.042;14.432;2023-02-28T09:20:59;99510.69;;;17.27;18.45
78717;BME280;68045;50.042;14.432;2023-02-28T09:25:00;99505.09;;;17.79;17.43
78717;BME280;68045;50.042;14.432;2023-02-28T09:29:01;99512.88;;;17.13;18.15
78717;BME280;68045;50.042;14.432;2023-02-28T09:33:03;99505.47;;;16.58;18.46
78717;BME280;68045;50.042;14.432;2023-02-28T09:37:04;99506.00;;;17.00;17.87
78717;BME280;68045;50.042;14.432;2023-02-28T09:41:12;99513.75;;;17.19;17.17
78717;BME280;68045;50.042;14.432;2023-02-28T09:45:28;99514.44;;;16.97;17.67
78717;BME280;68045;50.042;14.432;2023-02-28T09:49:41;99514.25;;;17.49;17.67
78717;BME280;68045;50.042;14.432;2023-02-28T09:53:42;99511.69;;;18.86;16.28
78717;BME280;68045;50.042;14.432;2023-02-28T09:57:44;99509.16;;;19.70;15.64
78717;BME280;68045;50.042;14.432;2023-02-28T10:06:19;99507.56;;;18.73;16.44
78717;BME280;68045;50.042;14.432;2023-02-28T10:10:26;99519.03;;;18.47;16.26
78717;BME280;68045;50.042;14.432;2023-02-28T10:14:33;99516.81;;;20.62;14.71
78717;BME280;68045;50.042;14.432;2023-02-28T10:18:45;99523.34;;;20.96;14.62
78717;BME280;68045;50.042;14.432;2023-02-28T10:23:11;99519.47;;;19.89;15.21
78717;BME280;68045;50.042;14.432;2023-02-28T10:27:18;99511.75;;;19.97;15.03
78717;BME280;68045;50.042;14.432;2023-02-28T10:31:20;99517.53;;;20.32;14.58
78717;BME280;68045;50.042;14.432;2023-02-28T10:35:23;99516.72;;;20.31;14.80
78717;BME280;68045;50.042;14.432;2023-02-28T10:43:40;99507.78;;;20.15;15.04
78717;BME280;68045;50.042;14.432;2023-02-28T10:47:53;99502.53;;;20.41;14.93
78717;BME280;68045;50.042;14.432;2023-02-28T10:52:00;99499.41;;;22.51;13.38
78717;BME280;68045;50.042;14.432;2023-02-28T11:00:17;99495.94;;;21.60;13.52
78717;BME280;68045;50.042;14.432;2023-02-28T11:04:35;99495.94;;;20.89;14.30
78717;BME280;68045;50.042;14.432;2023-02-28T11:08:48;99497.50;;;21.87;13.75
78717;BME280;68045;50.042;14.432;2023-02-28T11:12:54;99496.75;;;22.85;12.83
78717;BME280;68045;50.042;14.432;2023-02-28T11:17:20;99498.38;;;21.52;13.52
78717;BME280;68045;50.042;14.432;2023-02-28T11:21:35;99488.56;;;20.34;14.47
78717;BME280;68045;50.042;14.432;2023-02-28T11:25:50;99482.16;;;21.92;13.96
78717;BME280;68045;50.042;14.432;2023-02-28T11:29:54;99481.94;;;22.43;13.10
78717;BME280;68045;50.042;14.432;2023-02-28T11:33:55;99480.66;;;22.31;13.46
78717;BME280;68045;50.042;14.432;2023-02-28T11:37:57;99473.75;;;23.32;12.69
78717;BME280;68045;50.042;14.432;2023-02-28T11:42:11;99475.94;;;23.59;12.24
78717;BME280;68045;50.042;14.432;2023-02-28T11:50:40;99476.66;;;23.94;11.86
78717;BME280;68045;50.042;14.432;2023-02-28T12:07:31;99442.69;;;25.38;11.67
78717;BME280;68045;50.042;14.432;2023-02-28T12:20:44;99444.63;;;26.79;9.92
78717;BME280;68045;50.042;14.432;2023-02-28T12:28:46;99431.84;;;27.02;9.73
78717;BME280;68045;50.042;14.432;2023-02-28T12:32:55;99424.75;;;25.42;11.00
78717;BME280;68045;50.042;14.432;2023-02-28T12:37:01;99436.94;;;24.42;11.11
78717;BME280;68045;50.042;14.432;2023-02-28T12:45:17;99429.50;;;24.34;11.28
78717;BME280;68045;50.042;14.432;2023-02-28T12:49:23;99428.47;;;26.51;10.40
78717;BME280;68045;50.042;14.432;2023-02-28T12:53:28;99425.00;;;25.73;10.80
78717;BME280;68045;50.042;14.432;2023-02-28T12:58:26;99425.22;;;24.65;11.12
78717;BME280;68045;50.042;14.432;2023-02-28T13:10:45;99414.16;;;25.46;10.63
78717;BME280;68045;50.042;14.432;2023-02-28T13:14:47;99416.09;;;24.24;11.14
78717;BME280;68045;50.042;14.432;2023-02-28T13:18:49;99409.78;;;23.72;11.73
78717;BME280;68045;50.042;14.432;2023-02-28T13:22:53;99410.81;;;24.37;11.54
78717;BME280;68045;50.042;14.432;2023-02-28T13:31:05;99401.41;;;21.43;13.40
78717;BME280;68045;50.042;14.432;2023-02-28T13:44:13;99403.06;;;20.57;14.71
78717;BME280;68045;50.042;14.432;2023-02-28T13:48:18;99404.41;;;21.11;14.18
78717;BME280;68045;50.042;14.432;2023-02-28T13:52:22;99401.03;;;18.97;16.26
78717;BME280;68045;50.042;14.432;2023-02-28T13:56:35;99398.50;;;19.23;15.82
78717;BME280;68045;50.042;14.432;2023-02-28T14:05:18;99389.06;;;19.10;16.14
78717;BME280;68045;50.042;14.432;2023-02-28T14:09:29;99396.44;;;19.87;15.54
78717;BME280;68045;50.042;14.432;2023-02-28T14:13:42;99399.13;;;19.35;16.05
78717;BME280;68045;50.042;14.432;2023-02-28T14:17:51;99396.53;;;19.50;16.59
78717;BME280;68045;50.042;14.432;2023-02-28T14:31:09;99368.75;;;17.30;18.10
78717;BME280;68045;50.042;14.432;2023-02-28T14:39:29;99377.53;;;17.09;18.42
78717;BME280;68045;50.042;14.432;2023-02-28T14:43:32;99371.00;;;17.77;17.61
78717;BME280;68045;50.042;14.432;2023-02-28T14:47:34;99367.34;;;17.66;17.71
78717;BME280;68045;50.042;14.432;2023-02-28T14:51:36;99366.09;;;17.30;19.01
78717;BME280;68045;50.042;14.432;2023-02-28T14:55:44;99379.13;;;16.42;18.99
78717;BME280;68045;50.042;14.432;2023-02-28T14:59:45;99366.59;;;16.71;18.12
78717;BME280;68045;50.042;14.432;2023-02-28T15:03:46;99363.53;;;17.40;17.85
78717;BME280;68045;50.042;14.432;2023-02-28T15:07:48;99363.31;;;17.20;18.47
78717;BME280;68045;50.042;14.432;2023-02-28T15:11:49;99369.84;;;16.62;18.29
78717;BME280;68045;50.042;14.432;2023-02-28T15:16:03;99370.03;;;17.44;17.75
78717;BME280;68045;50.042;14.432;2023-02-28T15:20:11;99374.78;;;16.53;18.75
78717;BME280;68045;50.042;14.432;2023-02-28T15:24:56;99379.19;;;15.74;19.91
78717;BME280;68045;50.042;14.432;2023-02-28T15:28:54;99371.94;;;15.10;20.33
78717;BME280;68045;50.042;14.432;2023-02-28T15:33:16;99371.63;;;14.95;20.64
78717;BME280;68045;50.042;14.432;2023-02-28T15:37:45;99367.91;;;14.84;20.97
78717;BME280;68045;50.042;14.432;2023-02-28T15:41:46;99366.03;;;13.71;22.12
78717;BME280;68045;50.042;14.432;2023-02-28T15:45:50;99366.41;;;13.57;22.39
78717;BME280;68045;50.042;14.432;2023-02-28T15:50:06;99361.91;;;13.39;22.39
78717;BME280;68045;50.042;14.432;2023-02-28T15:54:18;99363.66;;;12.83;23.88
78717;BME280;68045;50.042;14.432;2023-02-28T15:58:21;99361.88;;;11.11;26.03
78717;BME280;68045;50.042;14.432;2023-02-28T16:02:32;99365.66;;;9.14;30.19
78717;BME280;68045;50.042;14.432;2023-02-28T16:06:42;99365.75;;;8.07;31.29
78717;BME280;68045;50.042;14.432;2023-02-28T16:10:45;99368.25;;;7.13;33.70
78717;BME280;68045;50.042;14.432;2023-02-28T16:14:52;99373.69;;;6.36;35.79
78717;BME280;68045;50.042;14.432;2023-02-28T16:18:54;99374.09;;;5.55;37.56
78717;BME280;68045;50.042;14.432;2023-02-28T16:22:56;99375.38;;;5.11;38.67
78717;BME280;68045;50.042;14.432;2023-02-28T16:26:57;99376.59;;;4.76;39.25
78717;BME280;68045;50.042;14.432;2023-02-28T16:31:04;99384.13;;;4.47;40.28
78717;BME280;68045;50.042;14.432;2023-02-28T16:35:10;99382.78;;;4.43;40.54
78717;BME280;68045;50.042;14.432;2023-02-28T16:39:11;99387.03;;;4.27;41.08
78717;BME280;68045;50.042;14.432;2023-02-28T16:43:18;99391.44;;;4.19;41.33
78717;BME280;68045;50.042;14.432;2023-02-28T16:47:20;99390.09;;;3.98;41.56
78717;BME280;68045;50.042;14.432;2023-02-28T16:51:22;99393.13;;;3.77;41.89
78717;BME280;68045;50.042;14.432;2023-02-28T16:55:23;99395.78;;;3.51;42.48
78717;BME280;68045;50.042;14.432;2023-02-28T16:59:26;99401.63;;;3.45;43.19
78717;BME280;68045;50.042;14.432;2023-02-28T17:03:28;99408.31;;;3.40;43.36
78717;BME280;68045;50.042;14.432;2023-02-28T17:07:29;99409.75;;;3.34;43.39
78717;BME280;68045;50.042;14.432;2023-02-28T17:11:31;99407.38;;;3.23;43.51
78717;BME280;68045;50.042;14.432;2023-02-28T17:15:33;99418.50;;;3.25;43.85
78717;BME280;68045;50.042;14.432;2023-02-28T17:19:34;99414.06;;;3.17;44.01
78717;BME280;68045;50.042;14.432;2023-02-28T17:23:36;99415.28;;;3.05;44.03
78717;BME280;68045;50.042;14.432;2023-02-28T17:27:37;99418.34;;;3.00;44.25
78717;BME280;68045;50.042;14.432;2023-02-28T17:31:38;99417.47;;;2.92;45.19
78717;BME280;68045;50.042;14.432;2023-02-28T17:35:40;99425.69;;;2.79;45.26
78717;BME280;68045;50.042;14.432;2023-02-28T17:39:41;99422.34;;;2.69;45.16
78717;BME280;68045;50.042;14.432;2023-02-28T17:43:41;99420.84;;;2.66;45.97
78717;BME280;68045;50.042;14.432;2023-02-28T17:47:45;99422.47;;;2.67;46.43
78717;BME280;68045;50.042;14.432;2023-02-28T17:51:48;99422.34;;;2.69;46.61
78717;BME280;68045;50.042;14.432;2023-02-28T17:55:50;99423.03;;;2.71;46.48
78717;BME280;68045;50.042;14.432;2023-02-28T17:59:51;99419.59;;;2.70;46.43
78717;BME280;68045;50.042;14.432;2023-02-28T18:03:52;99429.50;;;2.67;46.34
78717;BME280;68045;50.042;14.432;2023-02-28T18:07:53;99420.84;;;2.66;45.96
78717;BME280;68045;50.042;14.432;2023-02-28T18:11:55;99421.38;;;2.52;47.19
78717;BME280;68045;50.042;14.432;2023-02-28T18:15:56;99426.16;;;2.57;46.71
78717;BME280;68045;50.042;14.432;2023-02-28T18:19:57;99426.38;;;2.45;47.09
78717;BME280;68045;50.042;14.432;2023-02-28T18:24:00;99426.22;;;2.29;46.84
78717;BME280;68045;50.042;14.432;2023-02-28T18:28:01;99418.19;;;2.23;47.33
78717;BME280;68045;50.042;14.432;2023-02-28T18:32:02;99420.78;;;2.23;47.85
78717;BME280;68045;50.042;14.432;2023-02-28T18:36:04;99421.09;;;2.19;47.21
78717;BME280;68045;50.042;14.432;2023-02-28T18:40:06;99411.84;;;2.07;47.84
78717;BME280;68045;50.042;14.432;2023-02-28T18:44:08;99416.69;;;2.02;48.55
78717;BME280;68045;50.042;14.432;2023-02-28T18:48:09;99418.22;;;1.95;48.71
78717;BME280;68045;50.042;14.432;2023-02-28T18:52:10;99423.34;;;1.87;49.65
78717;BME280;68045;50.042;14.432;2023-02-28T18:56:13;99418.19;;;1.77;49.72
78717;BME280;68045;50.042;14.432;2023-02-28T19:00:15;99425.47;;;1.74;49.42
78717;BME280;68045;50.042;14.432;2023-02-28T19:04:22;99422.47;;;1.69;49.32
78717;BME280;68045;50.042;14.432;2023-02-28T19:08:23;99426.59;;;1.61;49.74
78717;BME280;68045;50.042;14.432;2023-02-28T19:12:25;99420.59;;;1.61;49.49
78717;BME280;68045;50.042;14.432;2023-02-28T19:16:26;99407.88;;;1.58;49.86
78717;BME280;68045;50.042;14.432;2023-02-28T19:20:27;99414.06;;;1.47;50.43
78717;BME280;68045;50.042;14.432;2023-02-28T19:24:28;99412.84;;;1.51;50.92
78717;BME280;68045;50.042;14.432;2023-02-28T19:28:29;99402.50;;;1.42;50.87
78717;BME280;68045;50.042;14.432;2023-02-28T19:32:31;99406.88;;;1.31;50.73
78717;BME280;68045;50.042;14.432;2023-02-28T19:36:32;99400.72;;;1.32;50.98
78717;BME280;68045;50.042;14.432;2023-02-28T19:40:34;99397.03;;;1.35;51.41
78717;BME280;68045;50.042;14.432;2023-02-28T19:44:35;99401.13;;;1.37;50.70
78717;BME280;68045;50.042;14.432;2023-02-28T19:48:37;99407.25;;;1.46;51.16
78717;BME280;68045;50.042;14.432;2023-02-28T19:52:38;99399.84;;;1.51;50.58
78717;BME280;68045;50.042;14.432;2023-02-28T19:56:39;99399.53;;;1.54;50.82
78717;BME280;68045;50.042;14.432;2023-02-28T20:00:40;99402.44;;;1.51;51.70
78717;BME280;68045;50.042;14.432;2023-02-28T20:04:42;99414.88;;;1.57;51.44
78717;BME280;68045;50.042;14.432;2023-02-28T20:08:45;99413.91;;;1.58;51.87
78717;BME280;68045;50.042;14.432;2023-02-28T20:12:46;99424.94;;;1.70;50.39
78717;BME280;68045;50.042;14.432;2023-02-28T20:16:47;99430.09;;;1.52;51.25
78717;BME280;68045;50.042;14.432;2023-02-28T20:20:49;99426.72;;;1.32;51.90
78717;BME280;68045;50.042;14.432;2023-02-28T20:24:50;99426.09;;;1.21;52.10
78717;BME280;68045;50.042;14.432;2023-02-28T20:28:51;99427.75;;;1.12;52.28
78717;BME280;68045;50.042;14.432;2023-02-28T20:32:52;99423.50;;;1.21;52.65
78717;BME280;68045;50.042;14.432;2023-02-28T20:36:53;99430.06;;;1.15;53.04
78717;BME280;68045;50.042;14.432;2023-02-28T20:41:00;99421.75;;;1.02;53.08
78717;BME280;68045;50.042;14.432;2023-02-28T20:45:02;99420.53;;;1.06;52.95
78717;BME280;68045;50.042;14.432;2023-02-28T20:49:03;99420.69;;;0.95;53.51
78717;BME280;68045;50.042;14.432;2023-02-28T20:53:04;99412.47;;;0.90;54.00
78717;BME280;68045;50.042;14.432;2023-02-28T20:57:06;99418.94;;;0.86;54.34
78717;BME280;68045;50.042;14.432;2023-02-28T21:01:11;99420.16;;;0.81;54.31
78717;BME280;68045;50.042;14.432;2023-02-28T21:05:16;99411.81;;;0.68;54.40
78717;BME280;68045;50.042;14.432;2023-02-28T21:09:17;99412.09;;;0.65;55.01
78717;BME280;68045;50.042;14.432;2023-02-28T21:13:19;99418.66;;;0.60;55.59
78717;BME280;68045;50.042;14.432;2023-02-28T21:17:20;99424.25;;;0.55;55.41
78717;BME280;68045;50.042;14.432;2023-02-28T21:21:22;99427.00;;;0.63;55.89
78717;BME280;68045;50.042;14.432;2023-02-28T21:25:24;99429.19;;;0.58;55.67
78717;BME280;68045;50.042;14.432;2023-02-28T21:29:25;99427.41;;;0.49;55.85
78717;BME280;68045;50.042;14.432;2023-02-28T21:33:27;99440.00;;;0.44;56.35
78717;BME280;68045;50.042;14.432;2023-02-28T21:37:29;99436.84;;;0.40;56.24
78717;BME280;68045;50.042;14.432;2023-02-28T21:41:30;99430.97;;;0.38;56.19
78717;BME280;68045;50.042;14.432;2023-02-28T21:45:33;99421.13;;;0.32;56.63
78717;BME280;68045;50.042;14.432;2023-02-28T21:49:34;99428.38;;;0.29;57.04
78717;BME280;68045;50.042;14.432;2023-02-28T21:53:37;99419.06;;;0.26;57.35
78717;BME280;68045;50.042;14.432;2023-02-28T21:57:38;99421.91;;;0.13;57.73
78717;BME280;68045;50.042;14.432;2023-02-28T22:01:41;99422.06;;;0.12;57.88
78717;BME280;68045;50.042;14.432;2023-02-28T22:05:45;99420.03;;;0.15;58.02
78717;BME280;68045;50.042;14.432;2023-02-28T22:09:47;99429.69;;;0.13;58.23
78717;BME280;68045;50.042;14.432;2023-02-28T22:13:48;99422.88;;;0.12;57.92
78717;BME280;68045;50.042;14.432;2023-02-28T22:17:50;99436.66;;;-0.07;58.58
78717;BME280;68045;50.042;14.432;2023-02-28T22:21:51;99429.69;;;-0.06;58.58
78717;BME280;68045;50.042;14.432;2023-02-28T22:25:53;99438.53;;;-0.09;58.72
78717;BME280;68045;50.042;14.432;2023-02-28T22:29:55;99435.56;;;-0.04;59.15
78717;BME280;68045;50.042;14.432;2023-02-28T22:33:59;99442.38;;;-0.03;58.84
78717;BME280;68045;50.042;14.432;2023-02-28T22:38:00;99444.97;;;-0.13;58.59
78717;BME280;68045;50.042;14.432;2023-02-28T22:42:02;99440.44;;;-0.20;59.48
78717;BME280;68045;50.042;14.432;2023-02-28T22:46:05;99428.41;;;-0.21;59.50
78717;BME280;68045;50.042;14.432;2023-02-28T22:50:08;99435.00;;;-0.08;59.66
78717;BME280;68045;50.042;14.432;2023-02-28T22:54:09;99441.25;;;-0.20;59.46
78717;BME280;68045;50.042;14.432;2023-02-28T22:58:11;99434.97;;;-0.27;59.75
78717;BME280;68045;50.042;14.432;2023-02-28T23:02:12;99435.38;;;-0.22;59.79
78717;BME280;68045;50.042;14.432;2023-02-28T23:10:17;99436.06;;;-0.20;59.66
78717;BME280;68045;50.042;14.432;2023-02-28T23:14:19;99433.44;;;-0.30;59.57
78717;BME280;68045;50.042;14.432;2023-02-28T23:18:20;99434.91;;;-0.37;60.33
78717;BME280;68045;50.042;14.432;2023-02-28T23:22:21;99438.59;;;-0.39;61.27